Time;durP1;ratioP1;P1;durP2;ratioP2;P2;SDS_P1;SDS_P2;PMS_P1;PMS_P2;Temp;Humidity;BMP_temperature;BMP_pressure;BME280_temperature;BME280_humidity;BME280_pressure;Samples;Min_cycle;Max_cycle;Signal;HPM_P1;HPM_P2
2021/12/27 00:03:54;;;;;;;19.25;8.82;;;;;;;2.84;42.14;99458.38;7657358;32;37924;-71
2021/12/27 00:08:10;;;;;;;11.02;6.62;;;;;;;2.68;41.98;99459.03;7656416;32;37045;-73
2021/12/27 00:12:27;;;;;;;11.12;5.70;;;;;;;2.71;41.38;99448.62;7657411;32;39469;-73
2021/12/27 00:16:43;;;;;;;9.82;5.50;;;;;;;2.66;41.16;99450.34;7656570;32;40522;-73
2021/12/27 00:21:00;;;;;;;9.15;5.45;;;;;;;2.67;40.58;99446.63;7657486;32;37588;-72
2021/12/27 00:25:16;;;;;;;9.27;5.62;;;;;;;2.56;40.01;99450.91;7657208;32;37655;-73
2021/12/27 00:29:32;;;;;;;18.15;8.98;;;;;;;2.46;40.84;99438.00;7657145;32;39382;-72
2021/12/27 00:33:48;;;;;;;10.68;6.30;;;;;;;2.40;41.99;99445.09;7656903;32;40009;-71
2021/12/27 00:38:05;;;;;;;9.05;5.57;;;;;;;2.18;43.18;99460.06;7657073;32;38653;-72
2021/12/27 00:42:21;;;;;;;9.15;5.57;;;;;;;2.18;44.00;99452.81;7656829;32;37125;-72
2021/12/27 00:46:37;;;;;;;11.90;6.40;;;;;;;2.23;44.22;99452.16;7660034;32;40183;-72
2021/12/27 00:50:54;;;;;;;10.35;5.62;;;;;;;2.34;43.50;99455.94;7660064;32;39909;-72
2021/12/27 00:55:12;;;;;;;13.68;6.53;;;;;;;2.27;43.25;99452.53;7659882;32;37939;-72
2021/12/27 00:59:28;;;;;;;11.00;6.53;;;;;;;2.50;42.70;99462.56;7659994;32;38068;-72
2021/12/27 01:03:44;;;;;;;10.32;6.25;;;;;;;2.03;43.60;99457.75;7659931;32;40168;-71
2021/12/27 01:08:01;;;;;;;10.95;6.47;;;;;;;2.19;43.48;99454.47;7659689;32;40022;-73
2021/12/27 01:12:31;;;;;;;13.00;7.62;;;;;;;2.01;43.74;99457.97;7659771;32;38603;-71
2021/12/27 01:16:47;;;;;;;12.65;6.62;;;;;;;1.90;44.22;99457.88;7659881;32;37583;-72
2021/12/27 01:21:04;;;;;;;9.82;5.60;;;;;;;2.01;43.51;99459.84;7659743;32;39946;-72
2021/12/27 01:25:20;;;;;;;8.55;5.55;;;;;;;1.77;42.66;99459.66;7659951;32;40009;-72
2021/12/27 01:29:36;;;;;;;10.43;6.10;;;;;;;1.76;41.97;99463.41;7659545;32;37896;-73
2021/12/27 01:33:53;;;;;;;9.20;5.45;;;;;;;1.55;41.45;99463.81;7659499;32;37213;-72
2021/12/27 01:38:11;;;;;;;11.27;5.40;;;;;;;1.79;42.24;99452.19;7659589;32;39438;-72
2021/12/27 01:42:27;;;;;;;11.25;5.95;;;;;;;1.71;41.95;99446.28;7659448;32;40930;-71
2021/12/27 01:46:44;;;;;;;11.27;6.55;;;;;;;2.16;46.45;99449.53;7659383;32;37499;-72
2021/12/27 01:51:02;;;;;;;12.00;6.70;;;;;;;1.97;41.82;99443.34;7659533;32;37176;-72
2021/12/27 01:55:18;;;;;;;9.77;6.20;;;;;;;1.94;42.16;99449.16;7658901;32;40928;-72
2021/12/27 01:59:34;;;;;;;12.55;6.57;;;;;;;1.99;42.34;99453.88;7645958;32;39926;-72
2021/12/27 02:03:52;;;;;;;10.13;6.75;;;;;;;1.95;42.98;99447.28;7645618;32;37765;-72
2021/12/27 02:08:08;;;;;;;10.73;6.15;;;;;;;1.90;42.44;99441.75;7659080;32;37231;-72
2021/12/27 02:12:24;;;;;;;10.38;6.37;;;;;;;1.97;42.26;99451.41;7659149;32;39315;-71
2021/12/27 02:16:40;;;;;;;12.98;6.47;;;;;;;1.85;43.56;99454.00;7659101;32;40789;-72
2021/12/27 02:20:57;;;;;;;10.45;6.10;;;;;;;2.00;42.76;99460.87;7658904;32;38013;-72
2021/12/27 02:25:15;;;;;;;11.38;6.45;;;;;;;1.87;43.48;99457.28;7659003;32;37373;-72
2021/12/27 02:29:31;;;;;;;13.65;6.57;;;;;;;2.02;43.33;99445.37;7658874;32;39107;-72
2021/12/27 02:33:47;;;;;;;9.55;5.75;;;;;;;2.04;43.54;99448.66;7658776;32;40765;-72
2021/12/27 02:38:04;;;;;;;11.07;5.80;;;;;;;1.97;43.44;99442.53;7658774;32;37828;-72
2021/12/27 02:42:21;;;;;;;11.00;6.32;;;;;;;1.92;42.64;99447.75;7658818;32;37885;-73
2021/12/27 02:46:37;;;;;;;10.38;6.20;;;;;;;2.02;42.38;99446.19;7658742;32;39405;-73
2021/12/27 02:50:54;;;;;;;10.00;5.60;;;;;;;2.02;42.20;99450.75;7658720;32;40158;-73
2021/12/27 02:55:12;;;;;;;9.55;5.70;;;;;;;1.94;43.06;99451.84;7658518;32;37961;-74
2021/12/27 02:59:29;;;;;;;10.02;5.95;;;;;;;2.18;42.24;99447.44;7658645;32;37891;-72
2021/12/27 03:03:45;;;;;;;10.77;5.37;;;;;;;2.12;43.32;99440.28;7658435;32;40274;-72
2021/12/27 03:08:01;;;;;;;11.63;6.53;;;;;;;2.10;44.28;99442.34;7657239;32;39957;-72
2021/12/27 03:12:18;;;;;;;9.93;5.82;;;;;;;2.10;44.12;99442.34;7658405;32;38554;-72
2021/12/27 03:16:34;;;;;;;10.48;5.90;;;;;;;2.10;44.24;99436.97;7658362;32;37105;-72
2021/12/27 03:20:53;;;;;;;9.07;5.57;;;;;;;2.09;42.93;99429.97;7658360;32;39418;-72
2021/12/27 03:25:13;;;;;;;9.43;5.80;;;;;;;2.07;42.25;99426.69;7658329;32;40644;-72
2021/12/27 03:29:29;;;;;;;10.27;5.93;;;;;;;2.35;42.87;99411.88;7658269;32;37842;-72
2021/12/27 03:33:45;;;;;;;8.23;5.62;;;;;;;2.07;43.02;99418.62;7658166;32;37900;-72
2021/12/27 03:38:03;;;;;;;13.77;6.37;;;;;;;2.15;42.78;99423.69;7658195;32;39481;-72
2021/12/27 03:42:19;;;;;;;8.55;5.70;;;;;;;2.17;43.30;99421.59;7658074;32;40002;-72
2021/12/27 03:46:35;;;;;;;10.45;6.10;;;;;;;2.23;43.06;99419.88;7657809;32;38615;-71
2021/12/27 03:50:52;;;;;;;6.87;5.03;;;;;;;2.28;41.24;99414.63;7658104;32;37377;-71
2021/12/27 03:55:10;;;;;;;10.93;5.72;;;;;;;2.07;41.69;99415.94;7657877;32;40842;-72
2021/12/27 03:59:48;;;;;;;11.20;5.80;;;;;;;2.07;42.45;99413.25;7657846;32;40132;-72
2021/12/27 04:04:04;;;;;;;8.85;4.90;;;;;;;2.05;41.01;99423.38;7657579;32;37882;-71
2021/12/27 04:08:22;;;;;;;8.07;5.05;;;;;;;2.12;43.13;99416.09;7657150;32;37145;-71
2021/12/27 04:12:39;;;;;;;9.07;5.18;;;;;;;2.00;43.39;99420.56;7657705;32;39265;-71
2021/12/27 04:16:55;;;;;;;9.20;5.55;;;;;;;2.12;42.58;99424.16;7657043;32;39978;-71
2021/12/27 04:21:11;;;;;;;9.02;5.15;;;;;;;2.21;40.98;99417.41;7657387;32;37974;-72
2021/12/27 04:25:27;;;;;;;12.15;5.55;;;;;;;2.13;41.64;99420.41;7657298;32;38261;-71
2021/12/27 04:29:44;;;;;;;9.43;5.18;;;;;;;2.19;40.95;99415.97;7657119;32;39871;-72
2021/12/27 04:34:00;;;;;;;11.32;5.60;;;;;;;2.44;38.12;99410.50;7656971;32;39962;-72
2021/12/27 04:38:16;;;;;;;8.48;5.22;;;;;;;2.17;38.46;99399.25;7656886;32;37865;-72
2021/12/27 04:42:32;;;;;;;6.95;5.12;;;;;;;2.33;39.80;99403.19;7656923;32;37042;-72
2021/12/27 04:46:48;;;;;;;19.15;8.85;;;;;;;2.38;40.11;99406.00;7656794;32;40019;-71
2021/12/27 04:51:05;;;;;;;15.65;7.70;;;;;;;2.24;40.21;99399.97;7656586;32;40898;-70
2021/12/27 04:55:23;;;;;;;10.05;6.12;;;;;;;2.33;40.21;99403.19;7656400;32;38659;-72
2021/12/27 04:59:39;;;;;;;33.95;17.05;;;;;;;2.46;39.98;99407.59;7656373;32;38760;-71
2021/12/27 05:03:55;;;;;;;29.02;15.18;;;;;;;2.41;41.24;99410.94;7656209;32;39362;-72
2021/12/27 05:08:11;;;;;;;16.50;8.10;;;;;;;2.34;40.67;99410.22;7655857;32;39860;-72
2021/12/27 05:12:32;;;;;;;9.77;5.43;;;;;;;2.35;41.45;99417.25;7655957;32;38417;-71
2021/12/27 05:16:48;;;;;;;17.73;8.35;;;;;;;2.35;41.79;99411.88;7656299;32;38124;-72
2021/12/27 05:21:04;;;;;;;15.98;7.80;;;;;;;2.45;41.66;99406.75;7655871;32;40040;-72
2021/12/27 05:25:20;;;;;;;11.02;6.12;;;;;;;2.49;40.60;99399.87;7655774;32;39987;-71
2021/12/27 05:29:37;;;;;;;8.32;4.85;;;;;;;2.21;41.99;99409.34;7656513;32;38009;-71
2021/12/27 05:33:53;;;;;;;8.43;5.00;;;;;;;1.85;43.33;99411.00;7659702;32;37816;-72
2021/12/27 05:38:09;;;;;;;7.43;4.82;;;;;;;2.03;42.89;99406.66;7659605;32;40037;-72
2021/12/27 05:42:25;;;;;;;8.07;4.68;;;;;;;2.04;43.18;99401.06;7659567;32;40620;-72
2021/12/27 05:46:42;;;;;;;9.63;5.35;;;;;;;1.95;43.44;99401.59;7659482;32;37603;-72
2021/12/27 05:50:58;;;;;;;6.65;4.97;;;;;;;1.93;41.74;99403.69;7659450;32;37859;-72
2021/12/27 05:55:14;;;;;;;11.88;5.68;;;;;;;1.82;42.44;99394.50;7659251;32;39431;-72
2021/12/27 05:59:30;;;;;;;9.93;5.22;;;;;;;1.78;41.71;99391.44;7659460;32;39891;-71
2021/12/27 06:03:46;;;;;;;8.23;5.10;;;;;;;1.96;41.01;99395.97;7659231;32;38902;-71
2021/12/27 06:08:07;;;;;;;11.05;5.95;;;;;;;1.75;41.88;99394.56;7659121;32;37164;-72
2021/12/27 06:12:23;;;;;;;8.18;5.35;;;;;;;1.82;40.78;99395.31;7658957;32;39426;-71
2021/12/27 06:16:39;;;;;;;8.55;5.55;;;;;;;1.72;42.01;99403.06;7658901;32;39993;-72
2021/12/27 06:20:56;;;;;;;8.23;5.25;;;;;;;1.59;42.37;99398.69;7658854;32;37570;-72
2021/12/27 06:25:12;;;;;;;8.55;5.37;;;;;;;1.48;42.27;99394.03;7659134;32;37703;-71
2021/12/27 06:29:28;;;;;;;8.07;5.72;;;;;;;1.84;40.84;99387.03;7658938;32;40063;-72
2021/12/27 06:33:44;;;;;;;11.52;5.62;;;;;;;1.65;40.82;99392.41;7658905;32;40754;-72
2021/12/27 06:38:00;;;;;;;11.43;5.45;;;;;;;1.50;41.17;99400.00;7658660;32;38539;-72
2021/12/27 06:42:16;;;;;;;9.50;5.85;;;;;;;1.58;40.43;99397.03;7658734;32;37349;-72
2021/12/27 06:46:32;;;;;;;7.55;4.85;;;;;;;1.58;43.34;99391.66;7658864;32;40103;-71
2021/12/27 06:50:48;;;;;;;9.82;5.57;;;;;;;1.32;44.05;99398.09;7645021;32;40905;-71
2021/12/27 06:55:05;;;;;;;6.82;4.80;;;;;;;1.42;43.22;99395.75;7658471;32;38644;-71
2021/12/27 06:59:21;;;;;;;9.00;5.40;;;;;;;1.56;41.89;99401.00;7658661;32;37743;-72
2021/12/27 07:03:38;;;;;;;9.00;5.40;;;;;;;1.64;42.00;99395.34;7658649;32;39911;-72
2021/12/27 07:07:54;;;;;;;10.20;5.90;;;;;;;1.56;41.97;99399.13;7658176;32;37742;-72
2021/12/27 07:12:10;;;;;;;14.32;7.85;;;;;;;1.73;40.95;99399.34;7658320;32;37818;-73
2021/12/27 07:16:27;;;;;;;11.75;7.32;;;;;;;1.85;40.76;99392.19;7658283;32;37626;-71
2021/12/27 07:20:43;;;;;;;11.35;6.87;;;;;;;1.66;41.06;99398.63;7658204;32;39529;-72
2021/12/27 07:24:59;;;;;;;11.73;6.65;;;;;;;1.77;40.71;99391.66;7658225;32;39872;-72
2021/12/27 07:29:15;;;;;;;10.90;6.05;;;;;;;1.70;40.57;99399.78;7658193;32;37870;-74
2021/12/27 07:33:32;;;;;;;11.07;6.10;;;;;;;1.63;40.99;99393.69;7644790;32;37073;-73
2021/12/27 07:37:48;;;;;;;9.73;6.30;;;;;;;1.77;41.68;99387.09;7658073;32;39391;-73
2021/12/27 07:42:05;;;;;;;9.63;5.62;;;;;;;1.73;42.75;99388.59;7658019;32;40840;-72
2021/12/27 07:46:21;;;;;;;9.57;5.53;;;;;;;1.79;43.22;99387.69;7658030;32;37820;-74
2021/12/27 07:50:38;;;;;;;8.13;5.47;;;;;;;1.94;43.05;99383.81;7658085;32;37126;-74
2021/12/27 07:54:54;;;;;;;11.77;6.00;;;;;;;1.93;43.89;99387.53;7657175;32;39393;-73
2021/12/27 07:59:11;;;;;;;11.02;5.47;;;;;;;2.09;42.86;99381.56;7657695;32;40957;-73
2021/12/27 08:03:28;;;;;;;10.77;7.03;;;;;;;2.30;42.22;99376.75;7657580;32;37582;-77
2021/12/27 08:07:44;;;;;;;9.52;6.40;;;;;;;2.35;42.61;99380.41;7643849;32;38047;-75
2021/12/27 08:12:00;;;;;;;13.48;7.32;;;;;;;1.97;43.05;99383.37;7657546;32;39279;-72
2021/12/27 08:16:17;;;;;;;11.40;7.07;;;;;;;2.31;42.93;99376.53;7657307;32;40799;-74
2021/12/27 08:20:33;;;;;;;10.27;6.72;;;;;;;2.34;42.70;99375.25;7657136;32;39044;-82
2021/12/27 08:24:51;;;;;;;18.10;7.18;;;;;;;2.60;43.76;99372.19;7643751;32;36949;-74
2021/12/27 08:29:10;;;;;;;13.52;6.32;;;;;;;3.17;43.90;99362.78;7657032;32;39393;-75
2021/12/27 08:33:27;;;;;;;8.85;5.57;;;;;;;3.25;41.31;99361.63;7657017;32;40628;-74
2021/12/27 08:37:44;;;;;;;12.98;6.15;;;;;;;3.10;39.33;99351.31;7656826;32;38421;-73
2021/12/27 08:42:01;;;;;;;12.95;7.47;;;;;;;3.37;38.38;99360.56;7656840;32;37085;-70
2021/12/27 08:46:17;;;;;;;11.27;6.93;;;;;;;3.03;38.50;99375.66;7656645;32;39165;-72
2021/12/27 08:50:37;;;;;;;12.65;6.65;;;;;;;2.61;39.55;99389.97;7656481;32;39973;-72
2021/12/27 08:55:04;;;;;;;11.82;6.47;;;;;;;3.20;38.83;99397.34;7654457;32;37632;-74
2021/12/27 08:59:20;;;;;;;11.68;6.47;;;;;;;3.19;38.10;99385.75;7656265;32;37098;-73
2021/12/27 09:03:36;;;;;;;13.60;6.90;;;;;;;3.04;37.84;99387.25;7656004;32;39311;-73
2021/12/27 09:07:57;;;;;;;12.63;6.37;;;;;;;3.24;36.92;99381.53;7659697;32;38660;-73
2021/12/27 09:12:13;;;;;;;11.12;6.78;;;;;;;3.12;37.72;99378.81;7646229;32;37601;-73
2021/12/27 09:16:30;;;;;;;9.88;5.53;;;;;;;3.33;36.09;99378.25;7659583;32;37662;-73
2021/12/27 09:20:49;;;;;;;11.55;5.87;;;;;;;3.25;35.15;99384.00;7659920;32;39979;-74
2021/12/27 09:25:06;;;;;;;13.00;6.43;;;;;;;3.48;33.72;99387.72;7659515;32;40615;-74
2021/12/27 09:29:22;;;;;;;7.25;5.12;;;;;;;3.41;33.93;99376.25;7659386;32;37920;-75
2021/12/27 09:33:38;;;;;;;9.52;5.57;;;;;;;3.48;33.94;99371.56;7659348;32;38003;-74
2021/12/27 09:37:55;;;;;;;10.05;5.80;;;;;;;3.66;31.97;99368.75;7659329;32;37850;-74
2021/12/27 09:42:11;;;;;;;9.52;5.60;;;;;;;3.64;33.73;99359.22;7659013;32;39962;-72
2021/12/27 09:46:27;;;;;;;10.45;5.97;;;;;;;4.02;32.91;99361.41;7659194;32;37895;-75
2021/12/27 09:50:54;;;;;;;10.13;5.87;;;;;;;3.45;32.78;99361.25;7659316;32;37139;-75
2021/12/27 09:55:12;;;;;;;12.45;6.53;;;;;;;3.22;36.87;99362.91;7659486;32;39359;-71
2021/12/27 09:59:28;;;;;;;13.15;7.20;;;;;;;3.27;40.99;99364.91;7659166;32;40821;-73
2021/12/27 10:03:53;;;;;;;12.32;6.65;;;;;;;3.34;38.12;99361.00;7659028;32;37792;-75
2021/12/27 10:08:09;;;;;;;9.63;6.20;;;;;;;3.54;37.07;99362.56;7659107;32;36154;-75
2021/12/27 10:12:28;;;;;;;12.32;6.57;;;;;;;3.68;37.35;99352.34;7659226;32;39467;-73
2021/12/27 10:16:55;;;;;;;19.77;8.63;;;;;;;4.09;36.55;99356.69;7646069;32;40057;-71
2021/12/27 10:21:14;;;;;;;12.30;6.35;;;;;;;4.04;34.55;99353.87;7655819;32;38719;-74
2021/12/27 10:25:31;;;;;;;11.85;6.37;;;;;;;3.81;35.03;99353.94;7658451;32;37122;-74
2021/12/27 10:29:47;;;;;;;17.75;8.75;;;;;;;4.05;34.61;99342.03;7658175;32;39594;-74
2021/12/27 10:34:04;;;;;;;10.52;6.53;;;;;;;3.68;34.37;99344.25;7658176;32;39988;-73
2021/12/27 10:38:27;;;;;;;11.20;6.30;;;;;;;3.48;33.57;99339.22;7657395;32;38517;-73
2021/12/27 10:42:46;;;;;;;10.38;6.18;;;;;;;3.82;34.06;99340.22;7658348;32;36884;-75
2021/12/27 10:47:37;;;;;;;13.10;7.32;;;;;;;3.93;34.82;99339.38;7657946;32;39167;-74
2021/12/27 10:51:55;;;;;;;12.30;6.45;;;;;;;4.46;34.17;99340.09;7658211;32;39749;-75
2021/12/27 10:56:11;;;;;;;10.55;5.55;;;;;;;4.35;32.76;99334.75;7676148;32;37806;-75
2021/12/27 11:00:31;;;;;;;11.88;6.82;;;;;;;4.30;32.08;99324.69;7683671;32;38021;-76
2021/12/27 11:04:48;;;;;;;11.77;6.32;;;;;;;4.26;32.09;99326.22;7684526;32;39946;-76
2021/12/27 11:09:04;;;;;;;24.75;9.48;;;;;;;4.16;32.53;99317.94;7683628;32;39973;-77
2021/12/27 11:13:22;;;;;;;22.62;9.50;;;;;;;4.36;31.82;99321.00;7673761;32;37787;-74
2021/12/27 11:17:39;;;;;;;16.35;7.65;;;;;;;4.31;31.71;99315.50;7657502;32;37594;-76
2021/12/27 11:21:55;;;;;;;13.38;7.10;;;;;;;3.83;32.05;99308.66;7656862;32;39354;-78
2021/12/27 11:26:13;;;;;;;12.85;6.43;;;;;;;4.41;31.18;99310.31;7644368;32;40710;-75
2021/12/27 11:30:32;;;;;;;10.95;6.05;;;;;;;4.17;30.93;99314.19;7657577;32;36787;-76
2021/12/27 11:34:59;;;;;;;13.38;6.50;;;;;;;4.35;30.95;99308.59;7658174;32;37946;-76
2021/12/27 11:39:28;;;;;;;14.27;7.03;;;;;;;4.31;29.98;99299.31;7658035;32;39424;-74
2021/12/27 11:44:05;;;;;;;15.13;8.80;;;;;;;3.89;32.28;99308.53;7658035;32;40019;-74
2021/12/27 11:48:27;;;;;;;12.30;6.82;;;;;;;3.93;33.03;99303.47;7658000;32;38441;-74
2021/12/27 11:52:47;;;;;;;13.27;7.47;;;;;;;4.23;34.31;99302.44;7657956;32;37139;-74
2021/12/27 11:57:03;;;;;;;11.85;7.00;;;;;;;4.24;32.86;99287.88;7657862;32;39317;-74
2021/12/27 12:01:22;;;;;;;11.00;6.78;;;;;;;4.44;31.77;99277.44;7657624;32;40596;-75
2021/12/27 12:05:44;;;;;;;10.98;5.95;;;;;;;4.32;31.46;99279.38;7657329;32;38634;-74
2021/12/27 12:10:14;;;;;;;13.68;7.20;;;;;;;4.46;32.99;99275.31;7657646;32;37861;-75
2021/12/27 12:14:35;;;;;;;12.80;6.62;;;;;;;4.33;31.71;99273.75;7657493;32;40174;-74
2021/12/27 12:18:51;;;;;;;12.85;6.45;;;;;;;4.19;32.68;99268.87;7657307;32;39992;-75
2021/12/27 12:23:09;;;;;;;13.40;6.62;;;;;;;4.38;32.74;99262.22;7657190;32;38588;-74
2021/12/27 12:27:25;;;;;;;14.13;7.00;;;;;;;4.56;33.52;99255.75;7657215;32;36329;-75
2021/12/27 12:31:41;;;;;;;14.38;6.97;;;;;;;4.45;33.72;99257.50;7657069;32;39246;-74
2021/12/27 12:36:00;;;;;;;12.45;7.05;;;;;;;4.25;33.67;99259.84;7657128;32;40304;-75
2021/12/27 12:40:22;;;;;;;11.00;6.82;;;;;;;4.54;33.44;99254.37;7658721;32;37781;-75
2021/12/27 12:44:59;;;;;;;11.55;7.07;;;;;;;4.30;33.40;99254.53;7660152;32;37061;-75
2021/12/27 12:49:22;;;;;;;14.05;7.28;;;;;;;4.17;34.09;99261.03;7660219;32;40066;-73
2021/12/27 12:53:38;;;;;;;13.32;6.97;;;;;;;4.49;34.40;99247.81;7646643;32;38869;-74
2021/12/27 12:57:55;;;;;;;12.32;7.28;;;;;;;4.16;34.33;99259.41;7659806;32;37874;-74
2021/12/27 13:02:25;;;;;;;12.75;6.93;;;;;;;4.41;34.06;99250.91;7659896;32;37187;-74
2021/12/27 13:06:46;;;;;;;14.30;7.03;;;;;;;4.58;34.10;99250.12;7659792;32;39486;-72
2021/12/27 13:11:02;;;;;;;13.80;7.72;;;;;;;4.51;34.36;99251.09;7659808;32;39916;-73
2021/12/27 13:15:22;;;;;;;15.43;9.00;;;;;;;4.55;33.87;99240.63;7659711;32;37986;-73
2021/12/27 13:20:01;;;;;;;16.98;9.02;;;;;;;4.45;33.25;99240.44;7659525;32;37909;-74
2021/12/27 13:24:22;;;;;;;64.12;30.75;;;;;;;4.65;34.42;99239.97;7659577;32;39361;-73
2021/12/27 13:28:50;;;;;;;50.55;26.27;;;;;;;4.26;35.29;99237.16;7645953;32;40683;-75
2021/12/27 13:33:06;;;;;;;17.05;9.65;;;;;;;4.34;34.98;99236.78;7646086;32;38697;-74
2021/12/27 13:37:22;;;;;;;12.95;7.12;;;;;;;4.34;34.93;99244.88;7659515;32;37065;-76
2021/12/27 13:41:49;;;;;;;10.55;6.85;;;;;;;4.55;34.32;99234.41;7659478;32;39291;-75
2021/12/27 13:46:12;;;;;;;11.40;7.32;;;;;;;4.88;32.59;99234.41;7659405;32;39884;-74
2021/12/27 13:50:29;;;;;;;11.68;6.95;;;;;;;4.62;32.85;99245.84;7658761;32;36775;-74
2021/12/27 13:54:53;;;;;;;13.68;7.35;;;;;;;4.82;31.60;99238.06;7659364;32;38050;-74
2021/12/27 13:59:17;;;;;;;12.37;6.97;;;;;;;4.69;32.70;99243.81;7659140;32;39382;-74
2021/12/27 14:03:35;;;;;;;10.75;6.10;;;;;;;4.56;32.25;99236.06;7659292;32;40791;-74
2021/12/27 14:07:53;;;;;;;14.73;6.95;;;;;;;4.60;31.19;99243.41;7658934;32;38817;-75
2021/12/27 14:12:25;;;;;;;15.38;6.93;;;;;;;4.51;31.21;99243.00;7645855;32;38696;-76
2021/12/27 14:16:42;;;;;;;14.57;6.93;;;;;;;4.46;32.04;99242.91;7658949;32;40004;-76
2021/12/27 14:21:04;;;;;;;11.32;6.40;;;;;;;4.58;30.83;99240.13;7659016;32;39965;-76
2021/12/27 14:25:23;;;;;;;14.32;7.18;;;;;;;4.49;30.86;99247.81;7658940;32;38589;-76
2021/12/27 14:29:39;;;;;;;15.15;8.23;;;;;;;4.50;30.62;99252.16;7658856;32;37904;-76
2021/12/27 14:33:55;;;;;;;19.25;8.68;;;;;;;4.18;31.95;99237.59;7658911;32;39307;-75
2021/12/27 14:38:20;;;;;;;14.00;8.73;;;;;;;4.46;32.26;99239.41;7658662;32;39668;-75
2021/12/27 14:42:37;;;;;;;14.90;8.43;;;;;;;5.75;29.93;99228.47;7646014;32;37949;-75
2021/12/27 14:46:54;;;;;;;16.05;8.02;;;;;;;6.79;28.15;99222.91;7658600;32;37175;-77
2021/12/27 14:51:10;;;;;;;14.87;8.07;;;;;;;6.35;29.93;99218.53;7658667;32;39725;-76
2021/12/27 14:55:27;;;;;;;12.95;7.18;;;;;;;6.05;30.06;99213.63;7658671;32;39815;-75
2021/12/27 14:59:43;;;;;;;14.50;8.35;;;;;;;5.69;31.08;99215.94;7658560;32;38496;-75
2021/12/27 15:04:15;;;;;;;17.87;7.97;;;;;;;5.32;34.66;99227.41;7658573;32;37286;-76
2021/12/27 15:08:31;;;;;;;15.60;8.25;;;;;;;5.21;33.51;99219.16;7658386;32;39243;-75
2021/12/27 15:12:47;;;;;;;14.57;8.15;;;;;;;4.86;35.53;99214.09;7658349;32;39967;-75
2021/12/27 15:17:04;;;;;;;14.40;8.10;;;;;;;4.64;37.94;99203.22;7658209;32;38426;-75
2021/12/27 15:21:20;;;;;;;13.20;7.10;;;;;;;4.29;39.68;99210.53;7658339;32;37319;-75
2021/12/27 15:25:36;;;;;;;16.37;8.23;;;;;;;4.59;39.32;99209.37;7658289;32;39403;-75
2021/12/27 15:29:54;;;;;;;12.93;8.40;;;;;;;4.53;38.99;99218.47;7658090;32;40795;-75
2021/12/27 15:34:10;;;;;;;16.58;8.30;;;;;;;4.35;40.88;99221.38;7658014;32;37914;-76
2021/12/27 15:38:27;;;;;;;16.98;8.85;;;;;;;4.27;40.84;99233.41;7658108;32;37111;-75
2021/12/27 15:42:44;;;;;;;14.40;8.90;;;;;;;4.35;38.96;99241.13;7658114;32;39287;-76
2021/12/27 15:47:00;;;;;;;18.80;8.90;;;;;;;4.00;40.52;99244.84;7657849;32;40829;-75
2021/12/27 15:51:22;;;;;;;15.85;8.90;;;;;;;3.70;41.06;99245.06;7657951;32;38608;-76
2021/12/27 15:55:39;;;;;;;17.27;8.32;;;;;;;3.69;41.11;99243.41;7657888;32;37149;-74
2021/12/27 15:59:55;;;;;;;16.30;8.88;;;;;;;4.29;47.84;99236.69;7654682;32;39411;-73
2021/12/27 16:04:12;;;;;;;16.20;9.30;;;;;;;4.18;40.27;99241.09;7665337;32;39897;-75
2021/12/27 16:08:28;;;;;;;17.00;8.55;;;;;;;4.02;40.52;99248.09;7669295;32;38725;-75
2021/12/27 16:12:44;;;;;;;15.10;7.55;;;;;;;3.95;40.96;99247.44;7673091;32;37349;-75
2021/12/27 16:17:01;;;;;;;16.12;8.43;;;;;;;3.81;41.30;99252.31;7683101;32;39537;-75
2021/12/27 16:21:18;;;;;;;14.93;8.13;;;;;;;3.82;41.36;99250.41;7682448;32;40736;-76
2021/12/27 16:25:34;;;;;;;16.17;7.95;;;;;;;3.57;42.23;99246.19;7656672;32;37858;-73
2021/12/27 16:29:51;;;;;;;15.13;8.20;;;;;;;3.59;42.72;99241.38;7668152;32;37202;-75
2021/12/27 16:34:10;;;;;;;21.35;8.88;;;;;;;3.67;42.30;99235.56;7673005;32;39364;-74
2021/12/27 16:38:27;;;;;;;14.30;7.70;;;;;;;3.52;40.33;99243.38;7659246;32;39925;-76
2021/12/27 16:42:47;;;;;;;21.27;11.23;;;;;;;3.24;42.38;99244.13;7655681;32;37468;-75
2021/12/27 16:47:04;;;;;;;48.42;19.98;;;;;;;3.57;42.37;99241.59;7656080;32;38145;-75
2021/12/27 16:51:20;;;;;;;18.45;9.82;;;;;;;3.67;41.20;99235.56;7655848;32;40138;-75
2021/12/27 16:55:36;;;;;;;19.80;10.68;;;;;;;3.64;41.10;99240.63;7655773;32;41571;-74
2021/12/27 16:59:52;;;;;;;19.25;11.00;;;;;;;3.54;40.79;99233.97;7655580;32;37836;-75
2021/12/27 17:04:08;;;;;;;20.85;10.85;;;;;;;3.54;40.50;99235.88;7648073;32;242583;-77
2021/12/27 17:08:25;;;;;;;17.90;8.88;;;;;;;3.50;40.69;99248.16;7655354;32;39455;-74
2021/12/27 17:12:41;;;;;;;13.20;7.50;;;;;;;3.29;40.66;99244.25;7655017;32;39869;-74
2021/12/27 17:16:57;;;;;;;14.00;7.50;;;;;;;3.36;39.75;99239.53;7655072;32;37808;-72
2021/12/27 17:21:16;;;;;;;15.95;7.30;;;;;;;3.35;39.40;99246.81;7655087;32;37146;-74
2021/12/27 17:25:35;;;;;;;11.55;6.85;;;;;;;3.32;39.70;99247.28;7655573;32;39498;-72
2021/12/27 17:29:51;;;;;;;12.75;7.25;;;;;;;3.48;38.89;99248.41;7658710;32;39789;-73
2021/12/27 17:34:08;;;;;;;13.85;6.85;;;;;;;3.46;38.17;99253.22;7658770;32;37621;-73
2021/12/27 17:38:24;;;;;;;11.68;6.47;;;;;;;3.49;37.25;99262.72;7658713;32;37684;-75
2021/12/27 17:42:41;;;;;;;10.55;6.40;;;;;;;3.27;40.78;99271.41;7658626;32;39408;-75
2021/12/27 17:46:58;;;;;;;11.98;6.12;;;;;;;3.16;41.85;99269.56;7659039;32;40606;-75
2021/12/27 17:51:14;;;;;;;13.15;6.45;;;;;;;3.15;42.20;99266.03;7658621;32;38600;-74
2021/12/27 17:55:30;;;;;;;10.95;6.60;;;;;;;3.46;40.60;99276.66;7658828;32;37246;-75
2021/12/27 17:59:46;;;;;;;15.00;7.53;;;;;;;3.34;42.02;99277.50;7658623;32;37903;-72
2021/12/27 18:04:03;;;;;;;15.80;7.75;;;;;;;3.44;41.01;99278.78;7658555;32;40886;-71
2021/12/27 18:08:19;;;;;;;18.83;9.05;;;;;;;3.25;43.27;99278.91;7658369;32;38530;-73
2021/12/27 18:12:35;;;;;;;20.48;10.20;;;;;;;3.29;43.71;99276.56;7658011;32;37393;-72
2021/12/27 18:16:51;;;;;;;18.42;8.95;;;;;;;3.09;44.71;99280.47;7658132;32;39886;-73
2021/12/27 18:21:09;;;;;;;17.17;8.40;;;;;;;3.12;42.68;99282.69;7658055;32;40680;-74
2021/12/27 18:25:26;;;;;;;14.48;7.35;;;;;;;3.06;41.25;99280.94;7658045;32;36851;-74
2021/12/27 18:29:43;;;;;;;14.95;7.78;;;;;;;3.06;41.55;99282.81;7657929;32;37196;-73
2021/12/27 18:34:00;;;;;;;13.95;7.65;;;;;;;3.26;41.25;99288.66;7658445;32;39329;-74
2021/12/27 18:38:17;;;;;;;18.73;8.73;;;;;;;3.16;41.74;99294.63;7657313;32;41500;-74
2021/12/27 18:42:33;;;;;;;19.40;9.90;;;;;;;3.18;40.44;99289.00;7658040;32;38537;-74
2021/12/27 18:46:49;;;;;;;13.50;7.20;;;;;;;3.33;40.60;99293.91;7657906;32;38102;-75
2021/12/27 18:51:05;;;;;;;16.05;8.55;;;;;;;3.37;42.40;99293.19;7657733;32;39297;-75
2021/12/27 18:55:22;;;;;;;16.05;7.95;;;;;;;3.31;42.47;99296.00;7658075;32;40682;-73
2021/12/27 18:59:38;;;;;;;13.90;8.13;;;;;;;3.34;43.55;99282.88;7657360;32;37810;-75
2021/12/27 19:03:55;;;;;;;16.80;8.30;;;;;;;3.33;44.33;99275.88;7658182;32;35786;-73
2021/12/27 19:08:11;;;;;;;14.23;6.60;;;;;;;3.24;43.69;99274.56;7657650;32;40096;-75
2021/12/27 19:12:27;;;;;;;10.77;6.45;;;;;;;3.32;42.50;99276.09;7657751;32;39703;-75
2021/12/27 19:16:43;;;;;;;11.73;7.25;;;;;;;3.15;42.66;99270.63;7657882;32;37597;-76
2021/12/27 19:21:00;;;;;;;15.80;8.52;;;;;;;3.15;42.77;99271.41;7658193;32;37001;-75
2021/12/27 19:25:16;;;;;;;13.77;7.20;;;;;;;3.30;43.91;99281.72;7657017;32;38929;-74
2021/12/27 19:29:32;;;;;;;11.90;7.62;;;;;;;3.36;42.11;99283.47;7658286;32;39988;-75
2021/12/27 19:33:48;;;;;;;21.27;8.10;;;;;;;3.19;43.44;99274.47;7658151;32;37790;-75
2021/12/27 19:38:09;;;;;;;15.63;8.25;;;;;;;3.38;43.71;99278.66;7658029;32;38213;-77
2021/12/27 19:42:26;;;;;;;11.15;6.30;;;;;;;3.08;44.53;99276.13;7658120;32;40023;-74
2021/12/27 19:46:43;;;;;;;17.58;9.48;;;;;;;3.27;42.88;99262.53;7657882;32;40015;-74
2021/12/27 19:51:00;;;;;;;16.48;9.80;;;;;;;3.13;39.73;99275.41;7656731;32;37636;-74
2021/12/27 19:55:16;;;;;;;16.50;8.77;;;;;;;3.24;40.71;99271.06;7657890;32;37160;-72
2021/12/27 19:59:32;;;;;;;41.40;17.62;;;;;;;3.27;41.89;99263.34;7657745;32;39357;-73
2021/12/27 20:03:49;;;;;;;31.52;13.98;;;;;;;3.25;41.43;99273.53;7657560;32;41006;-72
2021/12/27 20:08:06;;;;;;;39.55;17.48;;;;;;;3.18;41.02;99260.19;7657437;32;38419;-73
2021/12/27 20:12:22;;;;;;;40.60;15.40;;;;;;;3.25;41.31;99260.06;7657685;32;36899;-73
2021/12/27 20:16:38;;;;;;;22.48;10.45;;;;;;;3.09;42.15;99266.19;7657373;32;39338;-74